createdAt,value
2019-05-25T00:01:19.784Z,4.80
2019-05-25T00:05:28.409Z,5.43
2019-05-25T00:09:36.984Z,4.57
2019-05-25T00:13:45.608Z,4.20
2019-05-25T00:17:54.232Z,4.90
2019-05-25T00:22:02.803Z,5.40
2019-05-25T00:26:11.408Z,4.50
2019-05-25T00:30:20.175Z,6.43
2019-05-25T00:34:28.753Z,5.10
2019-05-25T00:38:37.361Z,5.10
2019-05-25T00:42:46.283Z,5.10
2019-05-25T00:46:54.876Z,5.10
2019-05-25T00:51:03.491Z,5.37
2019-05-25T00:55:12.371Z,6.10
2019-05-25T00:59:20.960Z,7.87
2019-05-25T01:03:29.959Z,5.63
2019-05-25T01:07:38.567Z,5.63
2019-05-25T01:11:47.194Z,5.57
2019-05-25T01:15:56.142Z,5.70
2019-05-25T01:20:07.700Z,6.00
2019-05-25T01:24:16.318Z,5.80
2019-05-25T01:28:24.948Z,6.03
2019-05-25T01:32:33.656Z,6.07
2019-05-25T01:36:42.258Z,6.47
2019-05-25T01:40:50.903Z,6.47
2019-05-25T01:44:59.585Z,5.93
2019-05-25T01:49:08.231Z,6.67
2019-05-25T01:53:16.848Z,7.87
2019-05-25T01:57:25.785Z,7.30
2019-05-25T02:01:34.761Z,7.10
2019-05-25T02:05:43.353Z,8.00
2019-05-25T02:09:51.968Z,7.03
2019-05-25T02:14:00.871Z,6.70
2019-05-25T02:18:09.468Z,7.80
2019-05-25T02:22:18.077Z,7.47
2019-05-25T02:26:46.050Z,7.33
2019-05-25T02:30:54.696Z,6.73
2019-05-25T02:35:03.801Z,7.87
2019-05-25T02:39:12.679Z,8.37
2019-05-25T02:43:21.284Z,9.47
2019-05-25T02:47:29.911Z,7.57
2019-05-25T02:51:38.505Z,6.90
2019-05-25T02:55:47.178Z,8.73
2019-05-25T02:59:55.785Z,8.10
2019-05-25T03:04:04.543Z,8.57
2019-05-25T03:08:13.137Z,9.53
2019-05-25T03:12:22.187Z,9.60
2019-05-25T03:16:31.170Z,9.27
2019-05-25T03:20:40.161Z,8.37
2019-05-25T03:24:48.775Z,8.93
2019-05-25T03:28:57.395Z,9.60
2019-05-25T03:33:06.513Z,8.57
2019-05-25T03:37:15.091Z,8.80
2019-05-25T03:41:24.077Z,9.63
2019-05-25T03:45:33.873Z,10.23
2019-05-25T03:49:42.468Z,9.63
2019-05-25T03:53:51.088Z,8.60
2019-05-25T03:57:59.870Z,9.60
2019-05-25T04:02:08.679Z,10.20
2019-05-25T04:06:17.305Z,9.20
2019-05-25T04:10:25.922Z,9.03
2019-05-25T04:14:34.548Z,10.43
2019-05-25T04:18:43.137Z,8.50
2019-05-25T04:22:51.751Z,8.23
2019-05-25T04:27:00.758Z,8.83
2019-05-25T04:31:09.435Z,10.43
2019-05-25T04:35:18.038Z,9.80
2019-05-25T04:39:26.668Z,9.70
2019-05-25T04:43:35.314Z,9.67
2019-05-25T04:47:43.902Z,9.50
2019-05-25T04:51:52.508Z,10.30
2019-05-25T04:56:01.564Z,9.93
2019-05-25T05:00:11.792Z,9.40
2019-05-25T05:04:20.422Z,10.37
2019-05-25T05:08:29.097Z,9.60
2019-05-25T05:12:37.678Z,9.90
2019-05-25T05:16:46.671Z,8.33
2019-05-25T05:20:55.277Z,8.90
2019-05-25T05:25:05.094Z,7.83
2019-05-25T05:29:13.718Z,9.70
2019-05-25T05:33:22.608Z,9.60
2019-05-25T05:37:32.370Z,8.40
2019-05-25T05:41:41.062Z,7.40
2019-05-25T05:45:51.155Z,8.10
2019-05-25T05:50:02.285Z,7.33
2019-05-25T05:54:10.888Z,7.80
2019-05-25T05:58:19.756Z,6.77
2019-05-25T06:02:28.383Z,7.70
2019-05-25T06:06:36.976Z,6.97
2019-05-25T06:10:45.886Z,6.97
2019-05-25T06:14:54.447Z,6.33
2019-05-25T06:19:03.237Z,7.23
2019-05-25T06:23:14.555Z,5.00
2019-05-25T06:27:27.326Z,4.83
2019-05-25T06:31:36.156Z,4.60
2019-05-25T06:35:44.747Z,4.70
2019-05-25T06:39:53.345Z,4.30
2019-05-25T06:44:02.194Z,4.27
2019-05-25T06:48:10.813Z,4.20
2019-05-25T06:52:19.392Z,4.43
2019-05-25T06:56:28.011Z,4.70
2019-05-25T07:00:36.601Z,4.40
2019-05-25T07:04:45.225Z,4.10
2019-05-25T07:08:53.907Z,4.20
2019-05-25T07:13:03.147Z,5.73
2019-05-25T07:17:11.763Z,4.90
2019-05-25T07:21:20.384Z,4.90
2019-05-25T07:25:29.027Z,4.70
2019-05-25T07:29:37.634Z,4.80
2019-05-25T07:33:46.283Z,4.50
2019-05-25T07:37:54.867Z,5.27
2019-05-25T07:42:03.622Z,5.03
2019-05-25T07:46:12.573Z,5.13
2019-05-25T07:50:21.728Z,6.23
2019-05-25T07:54:30.332Z,5.73
2019-05-25T07:58:38.946Z,6.90
2019-05-25T08:02:47.537Z,6.10
2019-05-25T08:06:56.199Z,7.40
2019-05-25T08:11:04.791Z,6.50
2019-05-25T08:15:14.500Z,6.90
2019-05-25T08:19:23.131Z,7.60
2019-05-25T08:23:31.767Z,8.63
2019-05-25T08:27:40.373Z,9.33
2019-05-25T08:31:48.998Z,8.00
2019-05-25T08:35:57.618Z,8.73
2019-05-25T08:40:07.626Z,7.90
2019-05-25T08:44:16.166Z,7.73
2019-05-25T08:48:24.801Z,7.37
2019-05-25T08:52:33.405Z,8.43
2019-05-25T08:56:42.018Z,7.70
2019-05-25T09:00:50.662Z,5.70
2019-05-25T09:04:59.709Z,5.77
2019-05-25T09:09:08.781Z,6.27
2019-05-25T09:13:17.377Z,5.83
2019-05-25T09:17:25.983Z,6.50
2019-05-25T09:21:34.593Z,6.20
2019-05-25T09:25:43.210Z,5.23
2019-05-25T09:29:51.823Z,5.65
2019-05-25T09:34:00.814Z,5.20
2019-05-25T09:38:28.779Z,4.30
2019-05-25T09:42:37.394Z,4.63
2019-05-25T09:46:46.053Z,4.30
2019-05-25T09:50:54.629Z,5.10
2019-05-25T09:55:05.219Z,5.57
2019-05-25T09:59:20.053Z,5.37
2019-05-25T10:03:24.104Z,5.90
2019-05-25T10:07:32.727Z,5.67
2019-05-25T10:12:00.700Z,5.43
2019-05-25T10:16:09.324Z,6.00
2019-05-25T10:20:18.336Z,6.67
2019-05-25T10:24:27.199Z,5.53
2019-05-25T10:28:36.116Z,6.20
2019-05-25T10:32:44.724Z,5.30
2019-05-25T10:36:53.307Z,5.80
2019-05-25T10:41:01.927Z,5.47
2019-05-25T10:45:10.769Z,6.30
2019-05-25T10:49:19.325Z,5.13
2019-05-25T10:53:27.949Z,5.40
2019-05-25T10:57:36.658Z,6.13
2019-05-25T11:01:45.596Z,6.10
2019-05-25T11:05:54.169Z,5.37
2019-05-25T11:10:02.882Z,4.90
2019-05-25T11:14:30.864Z,8.30
2019-05-25T11:18:39.606Z,6.57
2019-05-25T11:22:48.221Z,6.63
2019-05-25T11:26:59.555Z,5.87
2019-05-25T11:31:07.028Z,7.67
2019-05-25T11:35:17.235Z,6.60
2019-05-25T11:39:25.812Z,6.30
2019-05-25T11:43:34.427Z,6.87
2019-05-25T11:47:43.052Z,7.23
2019-05-25T11:51:51.667Z,6.10
2019-05-25T11:56:00.282Z,6.00
2019-05-25T12:00:24.519Z,5.50
2019-05-25T12:04:23.871Z,5.93
2019-05-25T12:08:32.467Z,6.00
2019-05-25T12:12:41.077Z,5.37
2019-05-25T12:16:49.701Z,5.67
2019-05-25T12:21:01.285Z,6.10
2019-05-25T12:25:10.117Z,5.87
2019-05-25T12:29:19.055Z,6.13
2019-05-25T12:33:27.644Z,6.97
2019-05-25T12:37:36.260Z,5.20
2019-05-25T12:41:44.923Z,5.83
2019-05-25T12:45:53.501Z,5.73
2019-05-25T12:50:02.152Z,6.03
2019-05-25T12:54:10.751Z,5.60
2019-05-25T12:58:19.369Z,5.40
2019-05-25T13:02:27.986Z,6.77
2019-05-25T13:06:36.574Z,4.90
2019-05-25T13:10:45.273Z,4.83
2019-05-25T13:14:53.859Z,5.40
2019-05-25T13:19:02.453Z,6.77
2019-05-25T13:23:11.082Z,5.23
2019-05-25T13:27:19.708Z,4.50
2019-05-25T13:31:28.304Z,4.30
2019-05-25T13:35:36.938Z,4.70
2019-05-25T13:39:45.875Z,4.62
2019-05-25T13:43:54.496Z,4.50
2019-05-25T13:48:03.434Z,5.20
2019-05-25T13:52:12.018Z,4.80
2019-05-25T13:56:20.637Z,4.50
2019-05-25T14:00:29.258Z,3.77
2019-05-25T14:04:37.835Z,4.60
2019-05-25T14:08:46.457Z,8.20
2019-05-25T14:12:55.020Z,5.33
2019-05-25T14:17:03.625Z,4.97
2019-05-25T14:21:12.242Z,5.20
2019-05-25T14:25:20.871Z,4.57
2019-05-25T14:29:29.801Z,4.70
2019-05-25T14:33:38.389Z,4.70
2019-05-25T14:37:47.008Z,4.60
2019-05-25T14:41:55.630Z,5.07
2019-05-25T14:46:04.528Z,5.03
2019-05-25T14:50:13.754Z,4.30
2019-05-25T14:54:22.634Z,4.30
2019-05-25T14:58:31.212Z,5.10
2019-05-25T15:02:40.257Z,5.30
2019-05-25T15:06:49.209Z,5.07
2019-05-25T15:10:57.817Z,4.77
2019-05-25T15:15:08.644Z,5.30
2019-05-25T15:19:17.257Z,5.03
2019-05-25T15:23:25.837Z,4.70
2019-05-25T15:27:34.815Z,5.10
2019-05-25T15:31:43.655Z,6.93
2019-05-25T15:35:52.272Z,5.20
2019-05-25T15:40:00.882Z,5.33
2019-05-25T15:44:09.471Z,5.10
2019-05-25T15:48:18.164Z,4.50
2019-05-25T15:52:26.745Z,4.73
2019-05-25T15:56:35.335Z,4.60
2019-05-25T16:00:49.389Z,4.90
2019-05-25T16:04:58.006Z,4.00
2019-05-25T16:09:07.750Z,4.70
2019-05-25T16:13:17.006Z,4.97
2019-05-25T16:17:26.342Z,5.47
2019-05-25T16:21:34.948Z,4.87
2019-05-25T16:25:43.546Z,4.47
2019-05-25T16:29:52.068Z,3.90
2019-05-25T16:34:00.673Z,4.73
2019-05-25T16:38:09.890Z,4.43
2019-05-25T16:42:18.595Z,4.13
2019-05-25T16:46:27.194Z,4.17
2019-05-25T16:50:35.774Z,4.40
2019-05-25T16:55:04.688Z,4.00
2019-05-25T16:59:13.625Z,4.37
2019-05-25T17:03:28.104Z,4.60
2019-05-25T17:07:32.541Z,4.00
2019-05-25T17:11:41.047Z,3.33
2019-05-25T17:15:49.669Z,3.60
2019-05-25T17:19:58.243Z,4.17
2019-05-25T17:24:06.940Z,4.70
2019-05-25T17:28:16.029Z,4.90
2019-05-25T17:32:24.633Z,4.83
2019-05-25T17:36:33.254Z,5.67
2019-05-25T17:40:41.906Z,5.93
2019-05-25T17:44:50.449Z,4.80
2019-05-25T17:48:59.081Z,5.13
2019-05-25T17:53:07.707Z,5.20
2019-05-25T17:57:16.281Z,4.75
2019-05-25T18:01:24.860Z,4.37
2019-05-25T18:05:33.437Z,5.90
2019-05-25T18:09:42.051Z,5.20
2019-05-25T18:13:50.656Z,4.97
2019-05-25T18:17:59.244Z,4.83
2019-05-25T18:22:07.855Z,5.40
2019-05-25T18:26:35.781Z,4.40
2019-05-25T18:30:44.390Z,4.90
2019-05-25T18:34:52.994Z,4.10
2019-05-25T18:39:01.574Z,4.37
2019-05-25T18:43:10.178Z,4.43
2019-05-25T18:47:18.766Z,5.57
2019-05-25T18:51:27.361Z,4.60
2019-05-25T18:55:35.963Z,4.70
2019-05-25T18:59:44.580Z,4.70
2019-05-25T19:03:53.165Z,4.77
2019-05-25T19:08:01.780Z,4.50
2019-05-25T19:12:10.374Z,4.93
2019-05-25T19:16:18.990Z,5.10
2019-05-25T19:20:27.643Z,4.73
2019-05-25T19:24:36.253Z,4.90
2019-05-25T19:28:44.863Z,4.80
2019-05-25T19:32:53.442Z,5.23
2019-05-25T19:37:03.635Z,4.60
2019-05-25T19:41:12.315Z,5.03
2019-05-25T19:45:21.296Z,6.83
2019-05-25T19:49:29.886Z,11.70
2019-05-25T19:53:38.507Z,14.37
2019-05-25T19:57:47.080Z,15.20
2019-05-25T20:01:55.690Z,10.53
2019-05-25T20:06:04.276Z,9.10
2019-05-25T20:10:13.156Z,9.30
2019-05-25T20:14:21.710Z,9.43
2019-05-25T20:18:30.338Z,9.10
2019-05-25T20:22:38.938Z,7.87
2019-05-25T20:26:47.619Z,6.77
2019-05-25T20:30:56.230Z,7.03
2019-05-25T20:35:06.049Z,6.63
2019-05-25T20:39:14.745Z,7.70
2019-05-25T20:43:23.300Z,6.40
2019-05-25T20:47:31.912Z,7.00
2019-05-25T20:51:40.484Z,7.37
2019-05-25T20:55:49.076Z,6.90
2019-05-25T20:59:57.678Z,6.80
2019-05-25T21:04:06.421Z,7.40
2019-05-25T21:08:15.049Z,7.77
2019-05-25T21:12:24.100Z,7.37
2019-05-25T21:16:32.718Z,8.10
2019-05-25T21:20:41.478Z,6.53
2019-05-25T21:24:50.106Z,7.63
2019-05-25T21:28:59.126Z,6.60
2019-05-25T21:33:08.167Z,8.37
2019-05-25T21:37:16.880Z,7.70
2019-05-25T21:41:25.496Z,7.70
2019-05-25T21:45:34.078Z,7.63
2019-05-25T21:49:42.957Z,7.63
2019-05-25T21:53:54.541Z,8.17
2019-05-25T21:58:03.179Z,8.73
2019-05-25T22:02:11.975Z,7.80
2019-05-25T22:06:24.258Z,8.17
2019-05-25T22:10:31.260Z,9.70
2019-05-25T22:14:39.873Z,10.80
2019-05-25T22:18:48.486Z,9.10
2019-05-25T22:22:57.083Z,9.50
2019-05-25T22:27:25.065Z,9.43
2019-05-25T22:31:33.666Z,9.07
2019-05-25T22:35:42.259Z,9.70
2019-05-25T22:39:50.935Z,9.77
2019-05-25T22:43:59.978Z,8.50
2019-05-25T22:48:08.575Z,8.43
2019-05-25T22:52:17.209Z,8.60
2019-05-25T22:56:25.790Z,9.33
2019-05-25T23:00:34.484Z,9.10
2019-05-25T23:04:43.619Z,9.67
2019-05-25T23:08:52.252Z,9.33
2019-05-25T23:13:00.849Z,9.47
2019-05-25T23:17:09.906Z,9.43
2019-05-25T23:21:18.796Z,9.03
2019-05-25T23:25:27.500Z,9.00
2019-05-25T23:29:36.457Z,9.90
2019-05-25T23:33:45.080Z,8.17
2019-05-25T23:37:53.690Z,9.07
2019-05-25T23:42:02.340Z,8.50
2019-05-25T23:46:10.989Z,8.47
2019-05-25T23:50:19.762Z,9.43
2019-05-25T23:54:28.410Z,8.70
2019-05-25T23:58:37.030Z,8.63
